Time;durP1;ratioP1;P1;durP2;ratioP2;P2;SDS_P1;SDS_P2;PMS_P1;PMS_P2;Temp;Humidity;BMP_temperature;BMP_pressure;BME280_temperature;BME280_humidity;BME280_pressure;Samples;Min_cycle;Max_cycle;Signal;HPM_P1;HPM_P2
2023/03/04 00:00:42;;;;;;;42.50;20.40;;;;;;;0.82;95.56;100413.70;104438;1280;99322;-78
2023/03/04 00:03:27;;;;;;;47.20;21.80;;;;;;;0.84;95.61;100413.84;104328;1280;99274;-79
2023/03/04 00:06:11;;;;;;;43.60;19.80;;;;;;;0.86;95.61;100411.27;104418;1279;102740;-79
2023/03/04 00:08:56;;;;;;;47.00;21.30;;;;;;;0.86;95.64;100407.90;104172;1280;99325;-78
2023/03/04 00:11:41;;;;;;;38.80;20.60;;;;;;;0.87;95.62;100403.11;104272;1273;101101;-78
2023/03/04 00:14:26;;;;;;;40.50;18.30;;;;;;;0.89;95.73;100392.91;104206;1274;99345;-79
2023/03/04 00:17:10;;;;;;;46.60;22.90;;;;;;;0.89;95.61;100388.48;104447;1273;99361;-79
2023/03/04 00:19:55;;;;;;;45.60;23.30;;;;;;;0.89;95.67;100387.75;104210;1273;102690;-79
2023/03/04 00:22:40;;;;;;;47.30;21.80;;;;;;;0.90;95.66;100377.68;104329;1273;99507;-77
2023/03/04 00:25:24;;;;;;;42.00;18.20;;;;;;;0.89;95.37;100370.05;104670;1280;99332;-80
2023/03/04 00:28:09;;;;;;;41.30;20.70;;;;;;;0.87;95.28;100363.52;104668;1278;100892;-77
2023/03/04 00:30:54;;;;;;;46.10;20.90;;;;;;;0.87;95.28;100358.27;104569;1279;99373;-79
2023/03/04 00:33:39;;;;;;;45.00;20.20;;;;;;;0.88;95.25;100355.02;104277;1274;103746;-79
2023/03/04 00:36:24;;;;;;;40.80;20.20;;;;;;;0.89;95.27;100350.52;105459;1274;100815;-79
2023/03/04 00:39:11;;;;;;;40.90;18.40;;;;;;;0.89;95.16;100347.52;104635;1273;99444;-78
2023/03/04 00:41:56;;;;;;;41.40;19.40;;;;;;;0.88;95.07;100342.15;104045;1282;99565;-79
2023/03/04 00:44:40;;;;;;;40.90;19.40;;;;;;;0.87;94.99;100348.91;104590;1287;99825;-79
2023/03/04 00:47:25;;;;;;;39.20;18.30;;;;;;;0.85;94.90;100343.17;104345;1279;102696;-80
2023/03/04 00:50:12;;;;;;;38.90;17.30;;;;;;;0.81;95.01;100333.77;104620;1273;100418;-78
2023/03/04 00:52:57;;;;;;;42.80;21.30;;;;;;;0.81;95.24;100335.61;104276;1279;99444;-78
2023/03/04 00:55:41;;;;;;;37.60;17.70;;;;;;;0.81;95.15;100338.41;104424;1279;99402;-78
2023/03/04 00:58:26;;;;;;;39.40;19.10;;;;;;;0.80;95.13;100336.86;104442;1274;99920;-78
2023/03/04 01:01:11;;;;;;;40.90;19.20;;;;;;;0.79;95.21;100336.27;104644;1273;104109;-80
2023/03/04 01:03:55;;;;;;;44.00;20.10;;;;;;;0.78;95.38;100337.71;104375;1273;99441;-78
2023/03/04 01:06:40;;;;;;;47.70;21.20;;;;;;;0.77;95.46;100335.86;103981;1280;99352;-78
2023/03/04 01:09:25;;;;;;;41.20;20.90;;;;;;;0.76;95.43;100331.24;104010;1280;99332;-78
2023/03/04 01:12:11;;;;;;;42.80;19.30;;;;;;;0.75;95.50;100330.46;104368;1280;100942;-78
2023/03/04 01:14:55;;;;;;;46.10;21.20;;;;;;;0.75;95.63;100325.02;104096;1291;102682;-79
2023/03/04 01:17:40;;;;;;;45.40;21.30;;;;;;;0.75;95.61;100310.91;104248;1273;99310;-78
2023/03/04 01:20:24;;;;;;;45.50;21.40;;;;;;;0.76;95.65;100298.00;104172;1279;99455;-79
2023/03/04 01:23:09;;;;;;;51.90;23.20;;;;;;;0.77;95.64;100285.11;104355;1280;99141;-78
2023/03/04 01:25:54;;;;;;;49.50;22.00;;;;;;;0.77;95.45;100277.52;104506;1274;99393;-80
2023/03/04 01:28:39;;;;;;;50.10;22.40;;;;;;;0.75;95.52;100266.60;104643;1280;102802;-78
2023/03/04 01:31:24;;;;;;;42.70;20.10;;;;;;;0.76;95.65;100246.48;104577;1278;99323;-79
2023/03/04 01:34:10;;;;;;;45.70;20.70;;;;;;;0.78;95.55;100214.19;104555;1273;99704;-79
2023/03/04 01:36:54;;;;;;;45.20;20.30;;;;;;;0.78;95.44;100200.52;104602;1279;99705;-79
2023/03/04 01:39:39;;;;;;;41.50;19.50;;;;;;;0.77;95.51;100193.52;104332;1274;99866;-79
2023/03/04 01:42:29;;;;;;;39.90;19.80;;;;;;;0.78;95.56;100185.50;104902;1274;102784;-78
2023/03/04 01:45:17;;;;;;;41.60;20.60;;;;;;;0.80;95.58;100181.90;104846;1279;100550;-80
2023/03/04 01:48:02;;;;;;;45.40;21.70;;;;;;;0.81;95.61;100173.02;104598;1279;100693;-78
2023/03/04 01:50:46;;;;;;;39.80;19.60;;;;;;;0.83;95.72;100174.21;104513;1276;100740;-82
2023/03/04 01:53:32;;;;;;;43.60;20.60;;;;;;;0.84;95.64;100177.13;104657;1274;99279;-81
2023/03/04 01:56:30;;;;;;;39.50;19.20;;;;;;;0.84;95.79;100175.55;105121;1279;102691;-80
2023/03/04 01:59:22;;;;;;;41.90;19.40;;;;;;;0.84;95.85;100173.10;105439;1273;99220;-79
2023/03/04 02:02:07;;;;;;;48.00;22.70;;;;;;;0.83;95.94;100156.63;105054;1280;99335;-79
2023/03/04 02:04:53;;;;;;;39.80;18.60;;;;;;;0.85;96.03;100143.80;104685;1279;99318;-78
2023/03/04 02:07:38;;;;;;;44.60;20.10;;;;;;;0.84;96.17;100130.17;104544;1273;99789;-78
2023/03/04 02:10:23;;;;;;;48.00;21.00;;;;;;;0.84;96.25;100128.29;104251;1274;102665;-79
2023/03/04 02:13:08;;;;;;;42.10;20.10;;;;;;;0.84;96.43;100128.44;104440;1273;99393;-77
2023/03/04 02:15:53;;;;;;;46.00;21.40;;;;;;;0.86;96.61;100128.46;104397;1280;100729;-78
2023/03/04 02:18:38;;;;;;;45.00;21.20;;;;;;;0.88;96.61;100128.83;104360;1280;99300;-78
2023/03/04 02:21:31;;;;;;;44.20;20.70;;;;;;;0.89;96.65;100128.92;104393;1280;99873;-78
2023/03/04 02:24:25;;;;;;;41.60;21.50;;;;;;;0.91;96.77;100130.61;104079;1274;103987;-78
2023/03/04 02:27:11;;;;;;;41.60;21.00;;;;;;;0.92;96.75;100127.52;104073;1279;99942;-78
2023/03/04 02:29:56;;;;;;;51.50;22.90;;;;;;;0.94;96.83;100132.66;104516;1274;99996;-78
2023/03/04 02:32:41;;;;;;;47.90;23.00;;;;;;;0.95;96.83;100136.80;104510;1273;99373;-78
2023/03/04 02:35:26;;;;;;;48.10;22.70;;;;;;;0.96;96.91;100141.18;103942;1273;99857;-79
2023/03/04 02:38:11;;;;;;;45.10;20.80;;;;;;;0.99;96.99;100139.58;104079;1280;102655;-79
2023/03/04 02:40:57;;;;;;;46.40;20.40;;;;;;;1.01;96.93;100139.05;104348;1276;99374;-79
2023/03/04 02:43:45;;;;;;;40.00;20.10;;;;;;;1.03;96.97;100141.27;104357;1278;99362;-80
2023/03/04 02:46:31;;;;;;;40.20;21.60;;;;;;;1.04;97.04;100137.51;104069;1274;100322;-79
2023/03/04 02:49:17;;;;;;;48.90;23.00;;;;;;;1.05;97.06;100138.30;104468;1278;99277;-78
2023/03/04 02:52:04;;;;;;;46.00;22.00;;;;;;;1.07;97.02;100135.34;104052;1274;103416;-78
2023/03/04 02:54:49;;;;;;;49.30;23.40;;;;;;;1.07;96.99;100134.58;104492;1280;99345;-81
2023/03/04 02:57:35;;;;;;;47.70;23.10;;;;;;;1.08;97.05;100134.89;104414;1279;100620;-77
2023/03/04 03:00:20;;;;;;;55.10;24.30;;;;;;;1.10;96.99;100131.18;104347;1280;99368;-78
2023/03/04 03:03:06;;;;;;;42.30;19.00;;;;;;;1.12;97.08;100126.91;104245;1275;99870;-78
2023/03/04 03:05:53;;;;;;;45.10;20.90;;;;;;;1.14;97.11;100125.68;104222;1276;102805;-77
2023/03/04 03:08:38;;;;;;;44.40;21.50;;;;;;;1.15;97.04;100122.94;104774;1274;99779;-79
2023/03/04 03:11:22;;;;;;;47.10;24.00;;;;;;;1.17;96.94;100116.67;104035;1273;99451;-78
2023/03/04 03:14:08;;;;;;;41.70;22.10;;;;;;;1.18;96.97;100118.66;104025;1279;100815;-79
2023/03/04 03:16:53;;;;;;;42.00;22.40;;;;;;;1.20;96.94;100121.25;104316;1275;100936;-78
2023/03/04 03:19:37;;;;;;;44.30;22.90;;;;;;;1.23;96.95;100121.89;104698;1274;103331;-79
2023/03/04 03:22:23;;;;;;;40.30;22.40;;;;;;;1.24;96.88;100119.80;104430;1279;100009;-77
2023/03/04 03:25:10;;;;;;;46.00;22.20;;;;;;;1.26;96.77;100116.80;103925;1273;100610;-77
2023/03/04 03:27:55;;;;;;;43.80;21.30;;;;;;;1.28;96.78;100120.48;103942;1280;99424;-79
2023/03/04 03:30:40;;;;;;;41.30;20.70;;;;;;;1.30;96.94;100113.33;104140;1274;99796;-79
2023/03/04 03:33:24;;;;;;;44.50;22.70;;;;;;;1.32;96.79;100112.64;104522;1274;103918;-79
2023/03/04 03:36:10;;;;;;;48.60;22.40;;;;;;;1.35;96.70;100105.15;104494;1274;99551;-78
2023/03/04 03:38:54;;;;;;;46.00;22.20;;;;;;;1.37;96.67;100103.88;104143;1274;99472;-78
2023/03/04 03:41:39;;;;;;;37.70;20.40;;;;;;;1.39;96.53;100101.38;104252;1279;99481;-80
2023/03/04 03:44:24;;;;;;;41.10;20.90;;;;;;;1.41;96.43;100100.70;104645;1274;98491;-79
2023/03/04 03:47:09;;;;;;;41.30;22.10;;;;;;;1.42;96.46;100100.90;104476;1275;102800;-78
2023/03/04 03:49:54;;;;;;;40.00;21.00;;;;;;;1.45;96.43;100101.16;104558;1275;99930;-79
2023/03/04 03:52:38;;;;;;;41.60;21.00;;;;;;;1.47;96.36;100101.34;104565;1273;99790;-79
2023/03/04 03:55:23;;;;;;;43.80;22.40;;;;;;;1.49;96.25;100099.42;104551;1274;99335;-79
2023/03/04 03:58:08;;;;;;;45.50;23.00;;;;;;;1.50;96.14;100096.84;104530;1277;99926;-78
2023/03/04 04:00:52;;;;;;;43.10;22.80;;;;;;;1.52;96.16;100098.23;104536;1273;102763;-79
2023/03/04 04:03:37;;;;;;;35.30;20.10;;;;;;;1.54;96.13;100098.39;104849;1278;100296;-79
2023/03/04 04:06:22;;;;;;;40.10;20.10;;;;;;;1.55;96.00;100097.78;104551;1279;99314;-80
2023/03/04 04:09:07;;;;;;;40.70;20.00;;;;;;;1.56;95.94;100093.49;104554;1279;99348;-79
2023/03/04 04:11:51;;;;;;;40.20;21.00;;;;;;;1.57;95.86;100089.50;104504;1274;99754;-78
2023/03/04 04:14:36;;;;;;;33.90;19.30;;;;;;;1.58;95.69;100086.20;104606;1273;102767;-77
2023/03/04 04:17:21;;;;;;;37.50;20.30;;;;;;;1.60;95.62;100085.91;104635;1279;99343;-79
2023/03/04 04:20:07;;;;;;;46.80;21.50;;;;;;;1.62;95.69;100084.16;104694;1274;99366;-78
2023/03/04 04:22:52;;;;;;;39.60;20.70;;;;;;;1.62;95.57;100079.20;104511;1273;99253;-79
2023/03/04 04:25:37;;;;;;;35.90;19.50;;;;;;;1.63;95.61;100077.71;104558;1275;99220;-78
2023/03/04 04:28:23;;;;;;;38.10;20.90;;;;;;;1.63;95.52;100078.35;104556;1278;103368;-78
2023/03/04 04:31:08;;;;;;;36.80;20.20;;;;;;;1.64;95.44;100077.59;104480;1280;99357;-80
2023/03/04 04:33:53;;;;;;;39.50;21.30;;;;;;;1.65;95.42;100074.69;104342;1296;99447;-78
2023/03/04 04:36:37;;;;;;;34.10;18.40;;;;;;;1.67;95.46;100068.88;104362;1274;99453;-78
2023/03/04 04:39:22;;;;;;;35.80;19.20;;;;;;;1.68;95.31;100064.56;103969;1274;99255;-78
2023/03/04 04:42:09;;;;;;;35.90;19.60;;;;;;;1.69;95.33;100060.06;104532;1274;103542;-79
2023/03/04 04:44:56;;;;;;;35.90;19.20;;;;;;;1.69;95.27;100059.84;104644;1278;99262;-79
2023/03/04 04:47:41;;;;;;;34.80;19.50;;;;;;;1.71;95.15;100060.05;104679;1274;99482;-79
2023/03/04 04:50:26;;;;;;;39.00;19.80;;;;;;;1.72;95.10;100062.58;104589;1278;99353;-80
2023/03/04 04:53:13;;;;;;;36.20;18.90;;;;;;;1.72;95.05;100061.50;104375;1274;99870;-79
2023/03/04 04:55:57;;;;;;;38.80;19.50;;;;;;;1.73;94.83;100058.30;104662;1279;102860;-78
2023/03/04 04:58:43;;;;;;;33.10;18.00;;;;;;;1.74;95.00;100059.41;104645;1280;99240;-79
2023/03/04 05:01:28;;;;;;;36.20;21.20;;;;;;;1.75;94.88;100057.88;104225;1280;99359;-79
2023/03/04 05:04:13;;;;;;;35.30;17.90;;;;;;;1.75;94.76;100060.33;104634;1278;100436;-78
2023/03/04 05:06:57;;;;;;;30.50;17.40;;;;;;;1.76;94.82;100056.92;104222;1278;99338;-78
2023/03/04 05:09:42;;;;;;;34.60;18.60;;;;;;;1.76;94.70;100055.02;104670;1279;102810;-78
2023/03/04 05:12:27;;;;;;;35.30;17.70;;;;;;;1.76;94.63;100054.79;104593;1274;100410;-79
2023/03/04 05:15:11;;;;;;;31.80;17.10;;;;;;;1.77;94.65;100058.96;104654;1278;99357;-78
2023/03/04 05:17:56;;;;;;;35.30;17.80;;;;;;;1.79;94.65;100057.40;104539;1280;99289;-79
2023/03/04 05:20:41;;;;;;;30.70;16.40;;;;;;;1.80;94.53;100053.94;104643;1273;99310;-78
2023/03/04 05:23:29;;;;;;;28.80;16.80;;;;;;;1.81;94.56;100048.05;104694;1273;102762;-79
2023/03/04 05:26:16;;;;;;;29.10;15.40;;;;;;;1.81;94.54;100048.05;104476;1274;102707;-78
2023/03/04 05:29:01;;;;;;;25.60;15.50;;;;;;;1.82;94.44;100048.30;105193;1273;99542;-78
2023/03/04 05:31:46;;;;;;;30.10;16.70;;;;;;;1.83;94.47;100047.85;104612;1273;99256;-78
2023/03/04 05:34:31;;;;;;;33.00;16.40;;;;;;;1.83;94.40;100045.34;104210;1273;99278;-79
2023/03/04 05:37:16;;;;;;;36.90;17.30;;;;;;;1.83;94.39;100047.27;104454;1274;103669;-78
2023/03/04 05:40:02;;;;;;;30.80;17.70;;;;;;;1.84;94.30;100047.84;104362;1279;99448;-77
2023/03/04 05:42:47;;;;;;;34.50;17.00;;;;;;;1.86;94.27;100044.36;103915;1274;99442;-79
2023/03/04 05:45:32;;;;;;;30.30;17.30;;;;;;;1.86;94.26;100045.21;104621;1273;99348;-79
2023/03/04 05:48:18;;;;;;;30.80;17.30;;;;;;;1.86;94.19;100039.77;104437;1274;99223;-80
2023/03/04 05:51:03;;;;;;;32.10;17.30;;;;;;;1.86;94.21;100036.83;104551;1273;104119;-78
2023/03/04 05:53:48;;;;;;;30.90;16.50;;;;;;;1.85;94.30;100032.97;104634;1280;99348;-78
2023/03/04 05:56:33;;;;;;;28.00;16.40;;;;;;;1.86;94.24;100032.20;104408;1279;99404;-78
2023/03/04 05:59:19;;;;;;;33.10;18.90;;;;;;;1.87;94.40;100031.42;104577;1273;99380;-79
2023/03/04 06:02:04;;;;;;;33.80;17.80;;;;;;;1.89;94.36;100033.89;104537;1279;99310;-78
2023/03/04 06:04:49;;;;;;;31.90;17.30;;;;;;;1.89;94.44;100030.72;104718;1275;102626;-79
2023/03/04 06:07:34;;;;;;;31.00;17.40;;;;;;;1.89;94.27;100027.36;104347;1273;99290;-79
2023/03/04 06:10:19;;;;;;;34.20;18.60;;;;;;;1.89;94.28;100027.86;104370;1273;99355;-78
2023/03/04 06:13:04;;;;;;;32.30;18.10;;;;;;;1.90;94.20;100029.95;104145;1274;99356;-78
2023/03/04 06:15:57;;;;;;;32.80;17.90;;;;;;;1.89;94.21;100025.41;103963;1279;99810;-79
2023/03/04 06:18:41;;;;;;;34.40;18.40;;;;;;;1.88;94.34;100023.01;104401;1276;103947;-78
2023/03/04 06:21:26;;;;;;;33.00;17.90;;;;;;;1.88;94.22;100029.02;104431;1277;99346;-80
2023/03/04 06:24:11;;;;;;;32.80;17.60;;;;;;;1.88;94.43;100026.36;104477;1274;99782;-78
2023/03/04 06:26:56;;;;;;;30.10;16.90;;;;;;;1.89;94.39;100021.72;103959;1279;100442;-78
2023/03/04 06:29:41;;;;;;;36.70;18.10;;;;;;;1.90;94.31;100026.55;104448;1274;99252;-78
2023/03/04 06:32:27;;;;;;;36.40;19.30;;;;;;;1.89;94.36;100022.91;104530;1273;103360;-80
2023/03/04 06:35:13;;;;;;;33.60;18.70;;;;;;;1.89;94.34;100023.25;104692;1279;99861;-79
2023/03/04 06:37:58;;;;;;;37.40;19.60;;;;;;;1.90;94.44;100025.70;104548;1273;99355;-79
2023/03/04 06:40:44;;;;;;;33.80;19.20;;;;;;;1.90;94.30;100027.42;104595;1273;99873;-79
2023/03/04 06:43:29;;;;;;;33.80;18.10;;;;;;;1.91;94.42;100029.11;104739;1273;100055;-79
2023/03/04 06:46:14;;;;;;;38.00;19.10;;;;;;;1.93;94.43;100023.13;104606;1274;104060;-78
2023/03/04 06:49:00;;;;;;;33.20;17.40;;;;;;;1.93;94.43;100016.26;104148;1274;99326;-77
2023/03/04 06:51:45;;;;;;;28.70;16.70;;;;;;;1.94;94.38;100021.44;104140;1273;99428;-79
2023/03/04 06:54:29;;;;;;;32.70;17.30;;;;;;;1.94;94.30;100025.09;104409;1280;99345;-79
2023/03/04 06:57:14;;;;;;;34.10;18.80;;;;;;;1.94;94.26;100023.04;104432;1279;99882;-78
2023/03/04 06:59:59;;;;;;;35.30;17.10;;;;;;;1.94;94.32;100026.31;104049;1279;105167;-78
2023/03/04 07:02:44;;;;;;;32.60;17.40;;;;;;;1.95;94.31;100031.15;104421;1279;100963;-77
2023/03/04 07:05:29;;;;;;;32.70;18.20;;;;;;;1.96;94.14;100031.55;104422;1274;99262;-78
2023/03/04 07:08:14;;;;;;;35.60;18.20;;;;;;;1.96;94.24;100025.05;104379;1275;99467;-78
2023/03/04 07:10:59;;;;;;;34.90;17.30;;;;;;;1.95;94.16;100024.08;104435;1274;99934;-78
2023/03/04 07:13:44;;;;;;;34.00;18.50;;;;;;;1.96;94.22;100024.15;104508;1277;103592;-79
2023/03/04 07:16:29;;;;;;;32.40;16.10;;;;;;;1.97;94.12;100016.32;103975;1274;99453;-78
2023/03/04 07:19:14;;;;;;;32.60;17.30;;;;;;;1.98;94.07;100007.79;104342;1276;99396;-78
2023/03/04 07:21:59;;;;;;;28.70;15.80;;;;;;;1.99;94.08;100014.39;104678;1274;99337;-78
2023/03/04 07:24:44;;;;;;;30.40;16.20;;;;;;;2.00;93.92;100008.68;104533;1274;99868;-77
2023/03/04 07:27:28;;;;;;;32.10;16.70;;;;;;;2.01;93.96;100000.28;104419;1278;102850;-78
2023/03/04 07:30:13;;;;;;;31.30;15.90;;;;;;;2.02;93.97;100001.12;104421;1280;99405;-78
2023/03/04 07:32:58;;;;;;;31.50;16.80;;;;;;;2.02;93.94;100005.98;104103;1280;99353;-77
2023/03/04 07:35:43;;;;;;;26.10;16.10;;;;;;;2.03;93.94;100003.41;104423;1274;99357;-79
2023/03/04 07:38:27;;;;;;;42.10;21.70;;;;;;;2.05;93.82;100005.72;104566;1278;99143;-80
2023/03/04 07:41:12;;;;;;;60.70;32.40;;;;;;;2.07;93.76;99997.39;104665;1280;102730;-78
2023/03/04 07:43:58;;;;;;;56.50;28.30;;;;;;;2.09;93.69;99990.16;104605;1274;99418;-79
2023/03/04 07:46:42;;;;;;;45.40;28.00;;;;;;;2.11;93.53;99990.91;104673;1275;99346;-79
2023/03/04 07:49:27;;;;;;;53.40;28.00;;;;;;;2.13;93.71;99986.29;104691;1274;99268;-78
2023/03/04 07:52:13;;;;;;;54.30;36.00;;;;;;;2.15;93.58;99986.27;105000;1278;99374;-83
2023/03/04 07:54:58;;;;;;;41.30;22.40;;;;;;;2.15;93.48;99987.78;105159;1279;103823;-79
2023/03/04 07:57:45;;;;;;;34.70;19.40;;;;;;;2.15;93.27;99986.61;105315;1273;99326;-81
2023/03/04 08:00:33;;;;;;;31.40;18.90;;;;;;;2.14;93.24;99987.69;105384;1274;99701;-90
2023/03/04 08:06:36;;;;;;;27.00;16.60;;;;;;;2.16;93.23;99981.77;105413;1276;99312;-85
2023/03/04 08:09:21;;;;;;;39.00;18.80;;;;;;;2.16;93.16;99979.23;104964;1279;102794;-82
2023/03/04 08:12:07;;;;;;;32.20;18.10;;;;;;;2.18;93.24;99978.23;104967;1277;100726;-86
2023/03/04 08:14:52;;;;;;;31.10;16.30;;;;;;;2.19;93.16;99974.19;104883;1283;99360;-81
2023/03/04 08:17:37;;;;;;;26.30;14.90;;;;;;;2.21;93.11;99974.59;105013;1276;99367;-81
2023/03/04 08:20:21;;;;;;;30.70;16.70;;;;;;;2.22;93.07;99974.42;104837;1279;99809;-79
2023/03/04 08:23:06;;;;;;;31.10;19.00;;;;;;;2.25;93.15;99974.16;104185;1279;102841;-82
2023/03/04 08:25:51;;;;;;;32.30;19.80;;;;;;;2.29;93.10;99974.48;104277;1280;100345;-85
2023/03/04 08:28:37;;;;;;;33.10;19.30;;;;;;;2.30;93.13;99973.86;104592;1280;99332;-84
2023/03/04 08:31:23;;;;;;;33.90;20.00;;;;;;;2.29;93.01;99972.86;104564;1280;99422;-77
2023/03/04 08:34:09;;;;;;;30.60;17.20;;;;;;;2.30;93.04;99971.73;104294;1277;99450;-78
2023/03/04 08:36:54;;;;;;;57.40;28.50;;;;;;;2.29;93.07;99970.61;104492;1279;103948;-78
2023/03/04 08:39:39;;;;;;;82.10;41.70;;;;;;;2.29;93.11;99966.91;104398;1277;99249;-79
2023/03/04 08:42:23;;;;;;;52.30;29.40;;;;;;;2.29;93.08;99963.85;104498;1277;99727;-78
2023/03/04 08:45:08;;;;;;;39.80;24.20;;;;;;;2.30;93.09;99959.40;104481;1277;100604;-79
2023/03/04 08:47:53;;;;;;;35.20;20.30;;;;;;;2.30;93.11;99957.29;104637;1276;99259;-84
2023/03/04 08:50:39;;;;;;;33.50;20.30;;;;;;;2.31;93.43;99956.45;104634;1276;103561;-84
2023/03/04 08:53:24;;;;;;;35.20;19.30;;;;;;;2.34;93.42;99957.56;104799;1276;100846;-84
2023/03/04 08:56:11;;;;;;;33.30;18.10;;;;;;;2.35;93.36;99955.32;104596;1277;99351;-82
2023/03/04 08:58:55;;;;;;;34.20;19.50;;;;;;;2.37;93.21;99949.93;104727;1275;99376;-81
2023/03/04 09:01:40;;;;;;;35.70;19.70;;;;;;;2.38;93.26;99947.92;105080;1276;99770;-85
2023/03/04 09:04:25;;;;;;;36.70;18.10;;;;;;;2.42;93.47;99944.19;104701;1279;102860;-86
2023/03/04 09:07:12;;;;;;;28.50;16.70;;;;;;;2.46;93.51;99941.74;105118;1276;101411;-87
2023/03/04 09:09:58;;;;;;;26.70;15.30;;;;;;;2.51;93.49;99935.80;104850;1277;99364;-87
2023/03/04 09:12:43;;;;;;;35.20;16.70;;;;;;;2.56;93.51;99935.66;104958;1277;99277;-84
2023/03/04 09:15:27;;;;;;;31.40;18.20;;;;;;;2.60;93.47;99933.19;104942;1274;99604;-81
2023/03/04 09:18:13;;;;;;;36.40;17.10;;;;;;;2.62;93.42;99933.48;105167;1276;103840;-87
2023/03/04 09:20:59;;;;;;;43.00;24.00;;;;;;;2.64;93.28;99933.42;104850;1280;100492;-87
2023/03/04 09:23:44;;;;;;;48.70;26.80;;;;;;;2.68;93.20;99925.67;104811;1277;99352;-85
2023/03/04 09:26:29;;;;;;;48.40;27.60;;;;;;;2.72;93.17;99927.34;104977;1276;97089;-88
2023/03/04 09:29:14;;;;;;;30.20;16.90;;;;;;;2.76;93.13;99922.84;104996;1276;99982;-88
2023/03/04 09:32:00;;;;;;;30.90;15.50;;;;;;;2.78;93.02;99921.04;104771;1276;104029;-86
2023/03/04 09:34:45;;;;;;;30.00;17.50;;;;;;;2.81;93.02;99918.98;104657;1276;99399;-87
2023/03/04 09:37:31;;;;;;;31.10;14.10;;;;;;;2.82;92.81;99916.94;105378;1283;99338;-88
2023/03/04 09:40:22;;;;;;;31.00;15.10;;;;;;;2.84;92.73;99912.89;105710;1282;99198;-90
2023/03/04 09:43:18;;;;;;;34.00;16.80;;;;;;;2.86;92.65;99907.19;105115;1274;99765;-86
2023/03/04 09:46:09;;;;;;;31.30;15.10;;;;;;;2.89;92.59;99906.90;104919;1276;102727;-84
2023/03/04 09:48:55;;;;;;;32.00;15.20;;;;;;;2.90;92.51;99903.67;104988;1277;100395;-80
2023/03/04 09:51:58;;;;;;;39.00;16.80;;;;;;;2.91;92.54;99903.19;105425;1276;99340;-89
2023/03/04 09:55:00;;;;;;;30.20;18.30;;;;;;;2.94;92.53;99900.61;105458;1282;98883;-89
2023/03/04 09:58:30;;;;;;;31.20;18.00;;;;;;;2.96;92.33;99893.79;105297;1279;99287;-87
2023/03/04 10:01:37;;;;;;;30.30;15.60;;;;;;;2.99;92.44;99888.98;105290;1274;102703;-89
2023/03/04 10:04:40;;;;;;;23.00;13.70;;;;;;;3.01;92.22;99882.42;104726;1287;99478;-82
2023/03/04 10:07:32;;;;;;;31.40;13.10;;;;;;;3.02;92.30;99881.20;104917;1276;99280;-86
2023/03/04 10:10:38;;;;;;;26.40;14.10;;;;;;;3.03;92.06;99879.36;104792;1282;99351;-77
2023/03/04 10:13:39;;;;;;;25.60;12.40;;;;;;;3.04;92.01;99880.11;105001;1279;97665;-84
2023/03/04 10:16:32;;;;;;;28.20;13.20;;;;;;;3.09;92.28;99873.77;104854;1276;103993;-84
2023/03/04 10:19:33;;;;;;;28.30;14.30;;;;;;;3.15;92.35;99866.13;105289;1277;99348;-88
2023/03/04 10:22:37;;;;;;;;;;;;;;;3.23;92.40;99863.56;104944;1276;99355;-82
2023/03/04 10:25:26;;;;;;;45.80;20.70;;;;;;;3.30;92.51;99860.02;104448;1277;99386;-78
2023/03/04 10:28:16;;;;;;;72.00;37.50;;;;;;;3.37;92.38;99854.23;104552;1278;99291;-80
2023/03/04 10:31:07;;;;;;;35.30;18.70;;;;;;;3.42;92.37;99855.01;104359;1274;102823;-84
2023/03/04 10:33:52;;;;;;;32.50;15.70;;;;;;;3.43;91.98;99853.49;104946;1279;100448;-79
2023/03/04 10:37:01;;;;;;;31.60;15.60;;;;;;;3.43;92.04;99849.13;104347;1276;100877;-79
2023/03/04 10:39:48;;;;;;;28.90;15.40;;;;;;;3.45;92.37;99845.66;104342;1276;99380;-77
2023/03/04 10:42:47;;;;;;;29.40;14.20;;;;;;;3.47;92.28;99840.41;105101;1276;99281;-91
2023/03/04 10:45:38;;;;;;;31.20;14.90;;;;;;;3.49;92.54;99840.20;104888;1279;103232;-78
2023/03/04 10:48:28;;;;;;;29.10;15.70;;;;;;;3.50;92.76;99837.56;104517;1276;100549;-85
2023/03/04 10:51:25;;;;;;;37.70;20.10;;;;;;;3.51;92.72;99839.26;104795;1275;99297;-79
2023/03/04 10:54:39;;;;;;;57.30;25.40;;;;;;;3.52;92.62;99836.19;104908;1277;99329;-82
2023/03/04 10:57:34;;;;;;;53.10;21.30;;;;;;;3.52;92.85;99834.80;105089;1276;99280;-81
2023/03/04 11:00:25;;;;;;;89.20;33.80;;;;;;;3.50;93.02;99831.98;105247;1276;102643;-80
2023/03/04 11:03:24;;;;;;;104.00;38.30;;;;;;;3.51;93.18;99836.48;104994;1276;99267;-83
2023/03/04 11:06:21;;;;;;;109.70;39.40;;;;;;;3.48;93.44;99835.31;104154;1280;99369;-77
2023/03/04 11:09:22;;;;;;;68.50;31.10;;;;;;;3.47;93.76;99834.05;104689;1279;101432;-83
2023/03/04 11:12:13;;;;;;;83.60;33.80;;;;;;;3.45;93.98;99834.04;105190;1276;99283;-87
2023/03/04 11:14:59;;;;;;;67.20;28.20;;;;;;;3.43;94.15;99834.95;104911;1277;103910;-86
2023/03/04 11:17:49;;;;;;;90.40;31.80;;;;;;;3.42;94.21;99838.13;104760;1277;100369;-85
2023/03/04 11:20:47;;;;;;;71.10;31.50;;;;;;;3.42;94.67;99838.07;104689;1276;99249;-84
2023/03/04 11:23:43;;;;;;;41.50;20.20;;;;;;;3.42;94.90;99836.31;104630;1277;99438;-83
2023/03/04 11:26:44;;;;;;;39.60;18.90;;;;;;;3.42;94.99;99832.52;105014;1275;99934;-80
2023/03/04 11:29:44;;;;;;;26.60;15.90;;;;;;;3.40;94.92;99832.80;104823;1274;103811;-84
2023/03/04 11:32:36;;;;;;;34.10;16.00;;;;;;;3.39;95.21;99829.55;104673;1282;100282;-85
2023/03/04 11:35:31;;;;;;;26.70;14.20;;;;;;;3.38;95.32;99830.05;104817;1278;99472;-82
2023/03/04 11:38:31;;;;;;;33.40;14.30;;;;;;;3.39;95.48;99823.77;104616;1277;99424;-86
2023/03/04 11:41:30;;;;;;;33.00;19.10;;;;;;;3.38;95.53;99820.65;104888;1279;99457;-84
2023/03/04 11:44:15;;;;;;;32.60;16.80;;;;;;;3.40;96.00;99814.54;104696;1274;102691;-77
2023/03/04 11:47:29;;;;;;;32.20;17.60;;;;;;;3.39;95.81;99813.52;104333;1279;99310;-77
2023/03/04 11:50:21;;;;;;;29.10;14.80;;;;;;;3.38;95.92;99816.42;104205;1274;99918;-77
2023/03/04 11:53:31;;;;;;;32.70;15.20;;;;;;;3.39;95.97;99812.84;104274;1279;99325;-77
2023/03/04 11:56:36;;;;;;;32.20;15.10;;;;;;;3.39;96.33;99812.15;104375;1276;99374;-77
2023/03/04 11:59:33;;;;;;;54.70;24.00;;;;;;;3.39;96.53;99811.45;104294;1279;102859;-77
2023/03/04 12:02:20;;;;;;;61.80;26.50;;;;;;;3.40;96.62;99812.42;104292;1290;99322;-75
2023/03/04 12:05:22;;;;;;;110.10;44.50;;;;;;;3.41;96.88;99812.82;103989;1277;99436;-77
2023/03/04 12:08:06;;;;;;;84.50;34.50;;;;;;;3.44;97.07;99814.06;104254;1278;99340;-77
2023/03/04 12:11:00;;;;;;;79.20;26.60;;;;;;;3.44;97.21;99821.96;104146;1280;99303;-77
2023/03/04 12:14:14;;;;;;;30.40;15.40;;;;;;;3.43;97.33;99819.29;103917;1277;102680;-76
2023/03/04 12:17:36;;;;;;;25.40;12.20;;;;;;;3.38;97.17;99821.80;104309;1276;100961;-77
2023/03/04 12:20:46;;;;;;;23.20;12.20;;;;;;;3.30;97.27;99824.95;104204;1279;99881;-76
2023/03/04 12:24:01;;;;;;;25.40;11.20;;;;;;;3.22;97.26;99824.73;104316;1277;99338;-78
2023/03/04 12:27:12;;;;;;;24.90;13.00;;;;;;;3.15;97.72;99823.48;103944;1278;100010;-78
2023/03/04 12:30:09;;;;;;;22.30;12.50;;;;;;;3.12;98.39;99824.50;104305;1280;103309;-77
2023/03/04 12:33:29;;;;;;;22.10;13.10;;;;;;;3.12;98.87;99826.63;104344;1279;99342;-75
2023/03/04 12:37:16;;;;;;;27.70;11.30;;;;;;;3.13;99.40;99822.92;104489;1279;100173;-83
2023/03/04 12:40:17;;;;;;;34.80;18.50;;;;;;;3.18;99.68;99822.60;104986;1277;99477;-85
2023/03/04 12:43:26;;;;;;;50.50;24.50;;;;;;;3.24;99.89;99817.98;104388;1274;99309;-78
2023/03/04 12:46:34;;;;;;;66.20;27.90;;;;;;;3.27;99.90;99814.65;104591;1276;102966;-79
2023/03/04 12:49:46;;;;;;;32.10;16.50;;;;;;;3.31;99.94;99807.29;105446;1275;101466;-79